Time;durP1;ratioP1;P1;durP2;ratioP2;P2;SDS_P1;SDS_P2;PMS_P1;PMS_P2;Temp;Humidity;BMP_temperature;BMP_pressure;BME280_temperature;BME280_humidity;BME280_pressure;Samples;Min_cycle;Max_cycle;Signal;HPM_P1;HPM_P2
2022/05/16 00:01:25;;;;;;;2.35;1.55;;;20.40;52.70;;;;;;5090254;28;20059;-74
2022/05/16 00:03:52;;;;;;;2.63;1.55;;;20.40;52.70;;;;;;5078509;28;20409;-74
2022/05/16 00:06:18;;;;;;;3.83;1.83;;;20.40;52.70;;;;;;5070647;28;20048;-73
2022/05/16 00:08:45;;;;;;;3.25;2.00;;;20.70;56.60;;;;;;5070554;28;20481;-73
2022/05/16 00:11:13;;;;;;;3.22;1.73;;;21.30;57.30;;;;;;5070135;28;20136;-74
2022/05/16 00:13:40;;;;;;;2.28;1.70;;;20.40;56.60;;;;;;5071697;28;20052;-74
2022/05/16 00:16:07;;;;;;;3.22;2.08;;;20.40;52.80;;;;;;5071648;28;20072;-74
2022/05/16 00:18:33;;;;;;;2.67;1.73;;;20.30;52.70;;;;;;5125081;28;20048;-73
2022/05/16 00:21:00;;;;;;;3.08;2.00;;;20.40;56.60;;;;;;5090486;28;20059;-74
2022/05/16 00:23:27;;;;;;;3.67;1.80;;;20.30;52.70;;;;;;5124936;27;20138;-74
2022/05/16 00:25:53;;;;;;;2.00;1.50;;;20.30;52.70;;;;;;5090832;28;20098;-73
2022/05/16 00:28:21;;;;;;;2.55;1.58;;;20.30;56.80;;;;;;5090705;28;20078;-74
2022/05/16 00:30:48;;;;;;;3.28;1.70;;;20.40;56.80;;;;;;5080595;28;20140;-74
2022/05/16 00:33:15;;;;;;;2.35;1.48;;;20.30;52.80;;;;;;5070364;28;20452;-74
2022/05/16 00:35:42;;;;;;;2.58;1.60;;;20.30;52.80;;;;;;5070164;28;20051;-74
2022/05/16 00:38:08;;;;;;;3.63;2.13;;;20.20;56.80;;;;;;5070359;28;20056;-74
2022/05/16 00:40:36;;;;;;;2.40;1.75;;;20.20;56.90;;;;;;5070384;28;20044;-73
2022/05/16 00:43:03;;;;;;;2.53;1.65;;;20.30;52.80;;;;;;5070312;28;20056;-74
2022/05/16 00:45:31;;;;;;;2.40;1.60;;;20.30;52.80;;;;;;5088374;28;20072;-73
2022/05/16 00:47:58;;;;;;;3.20;1.60;;;20.20;57.60;;;;;;5124711;28;20064;-73
2022/05/16 00:50:24;;;;;;;3.00;1.60;;;18.00;51.50;;;;;;5090139;28;20130;-74
2022/05/16 00:52:51;;;;;;;3.42;1.70;;;20.30;58.30;;;;;;5090592;28;20130;-74
2022/05/16 00:55:20;;;;;;;3.13;1.50;;;20.20;52.80;;;;;;5090233;28;20134;-74
2022/05/16 00:57:49;;;;;;;2.53;1.50;;;20.00;55.90;;;;;;5084016;28;20131;-74
2022/05/16 01:00:18;;;;;;;3.55;1.77;;;20.20;52.80;;;;;;5069695;28;20102;-73
2022/05/16 01:05:32;;;;;;;1.92;1.40;;;20.20;52.80;;;;;;5104116;28;20127;-74
2022/05/16 01:08:00;;;;;;;2.30;1.52;;;20.20;52.80;;;;;;5103988;28;20063;-73
2022/05/16 01:10:27;;;;;;;4.13;1.70;;;20.20;52.80;;;;;;5069875;28;20135;-74
2022/05/16 01:12:54;;;;;;;2.88;1.58;;;21.20;57.80;;;;;;5072172;28;20552;-74
2022/05/16 01:15:28;;;;;;;2.80;1.63;;;20.00;52.70;;;;;;5075089;28;20052;-74
2022/05/16 01:17:56;;;;;;;2.00;1.40;;;19.70;56.60;;;;;;5073931;28;20136;-73
2022/05/16 01:20:23;;;;;;;2.38;1.58;;;20.10;52.80;;;;;;5073842;28;20074;-73
2022/05/16 01:22:51;;;;;;;3.33;1.60;;;20.30;58.10;;;;;;5073777;28;20060;-73
2022/05/16 01:25:20;;;;;;;2.97;1.70;;;21.30;58.70;;;;;;5080794;28;20465;-74
2022/05/16 01:27:48;;;;;;;2.65;1.60;;;20.10;56.30;;;;;;5093864;28;20489;-74
2022/05/16 01:30:15;;;;;;;3.20;1.70;;;20.10;52.80;;;;;;5093654;28;20056;-74
2022/05/16 01:32:42;;;;;;;2.38;1.60;;;20.00;57.00;;;;;;5093719;28;20416;-74
2022/05/16 01:35:09;;;;;;;3.00;1.50;;;20.10;52.80;;;;;;5093692;28;20044;-73
2022/05/16 01:40:22;;;;;;;2.13;1.50;;;20.00;58.00;;;;;;5108521;27;20048;-73
2022/05/16 01:42:49;;;;;;;2.42;1.70;;;20.10;56.70;;;;;;5073239;28;20523;-73
2022/05/16 01:45:16;;;;;;;2.20;1.60;;;20.30;56.90;;;;;;5073345;28;20040;-73
2022/05/16 01:47:43;;;;;;;2.47;1.50;;;20.40;56.30;;;;;;5107381;28;20052;-73
2022/05/16 01:50:10;;;;;;;2.17;1.50;;;20.00;56.20;;;;;;5072797;28;20044;-73
2022/05/16 01:52:36;;;;;;;2.00;1.52;;;20.30;57.00;;;;;;5079920;28;20150;-73
2022/05/16 01:55:03;;;;;;;2.00;1.50;;;20.00;52.70;;;;;;5093296;28;20048;-73
2022/05/16 01:57:31;;;;;;;2.92;1.58;;;20.00;52.70;;;;;;5093581;28;20134;-73
2022/05/16 01:59:58;;;;;;;2.00;1.33;;;19.10;56.20;;;;;;5092785;28;20131;-73
2022/05/16 02:02:25;;;;;;;2.50;1.67;;;19.50;57.60;;;;;;5093321;28;20052;-73
2022/05/16 02:04:51;;;;;;;2.53;1.35;;;20.00;52.80;;;;;;5093201;28;20390;-73
2022/05/16 02:07:18;;;;;;;2.13;1.50;;;20.00;52.80;;;;;;5077660;28;20058;-74
2022/05/16 02:09:45;;;;;;;1.60;1.30;;;19.00;56.80;;;;;;5072670;28;20135;-74
2022/05/16 02:12:12;;;;;;;4.38;1.75;;;20.30;52.90;;;;;;5072815;28;20508;-73
2022/05/16 02:14:40;;;;;;;3.10;1.33;;;19.80;57.90;;;;;;5072838;28;20493;-73
2022/05/16 02:17:07;;;;;;;3.10;1.50;;;20.70;58.30;;;;;;5072784;28;20159;-72
2022/05/16 02:19:34;;;;;;;3.00;1.42;;;19.90;52.70;;;;;;5075238;28;20063;-71
2022/05/16 02:24:44;;;;;;;2.03;1.40;;;19.00;56.30;;;;;;5093839;28;20102;-74
2022/05/16 02:27:13;;;;;;;2.63;1.50;;;20.00;57.50;;;;;;5093894;28;20059;-73
2022/05/16 02:29:41;;;;;;;1.77;1.38;;;19.90;58.30;;;;;;5092595;28;20058;-73
2022/05/16 02:32:10;;;;;;;4.15;1.65;;;19.90;52.70;;;;;;5092610;28;20062;-74
2022/05/16 02:34:37;;;;;;;1.40;1.13;;;20.90;57.20;;;;;;5078317;28;20067;-74
2022/05/16 02:37:04;;;;;;;1.30;1.20;;;20.00;56.10;;;;;;5071929;28;20762;-74
2022/05/16 02:39:31;;;;;;;2.03;1.38;;;19.80;56.90;;;;;;5073342;28;20049;-74
2022/05/16 02:41:58;;;;;;;1.88;1.38;;;19.90;52.70;;;;;;5072414;28;20424;-74
2022/05/16 02:44:25;;;;;;;2.25;1.20;;;19.90;52.70;;;;;;5072043;28;20056;-74
2022/05/16 02:46:53;;;;;;;1.75;1.30;;;19.90;57.00;;;;;;5074184;28;20049;-73
2022/05/16 02:49:21;;;;;;;2.70;1.50;;;19.60;56.50;;;;;;5075331;28;20054;-74
2022/05/16 02:51:47;;;;;;;1.65;1.40;;;19.80;53.20;;;;;;5123005;27;20420;-74
2022/05/16 02:54:14;;;;;;;2.58;1.52;;;19.70;58.30;;;;;;5092038;28;20048;-74
2022/05/16 02:56:41;;;;;;;2.63;1.40;;;19.80;52.70;;;;;;5092121;28;20404;-73
2022/05/16 02:59:07;;;;;;;1.42;1.30;;;19.60;56.90;;;;;;5091798;28;20058;-74
2022/05/16 03:01:35;;;;;;;2.00;1.60;;;19.80;56.70;;;;;;5080830;28;20062;-74
2022/05/16 03:04:03;;;;;;;2.85;1.50;;;19.80;52.70;;;;;;5071980;28;20064;-74
2022/05/16 03:06:29;;;;;;;1.80;1.40;;;19.80;52.70;;;;;;5071968;28;20080;-74
2022/05/16 03:08:56;;;;;;;1.52;1.08;;;19.80;56.60;;;;;;5071932;28;20052;-74
2022/05/16 03:11:23;;;;;;;2.13;1.40;;;19.80;52.70;;;;;;5105454;28;20082;-74
2022/05/16 03:13:50;;;;;;;2.15;1.33;;;20.10;56.80;;;;;;5072824;28;20060;-74
2022/05/16 03:16:16;;;;;;;2.97;1.30;;;20.40;57.70;;;;;;5079311;28;20052;-74
2022/05/16 03:18:43;;;;;;;2.28;1.50;;;20.90;53.30;;;;;;5071382;28;20048;-74
2022/05/16 03:21:11;;;;;;;1.52;1.13;;;19.80;52.70;;;;;;5071334;28;20049;-74
2022/05/16 03:23:38;;;;;;;2.63;1.10;;;19.90;52.80;;;;;;5071630;28;20059;-73
2022/05/16 03:26:05;;;;;;;2.00;1.40;;;19.50;56.80;;;;;;5070948;28;20136;-74
2022/05/16 03:28:32;;;;;;;1.40;1.30;;;19.20;56.90;;;;;;5078518;28;20052;-73
2022/05/16 03:30:59;;;;;;;1.88;1.48;;;19.50;56.50;;;;;;5091397;28;20064;-74
2022/05/16 03:33:26;;;;;;;2.35;1.40;;;19.70;52.70;;;;;;5091652;28;20082;-74
2022/05/16 03:35:55;;;;;;;2.03;1.33;;;19.70;52.70;;;;;;5073968;28;20055;-74
2022/05/16 03:41:09;;;;;;;2.22;1.50;;;19.90;56.60;;;;;;5125582;27;20052;-74
2022/05/16 03:43:36;;;;;;;1.75;1.30;;;19.80;57.80;;;;;;5072389;28;20051;-74
2022/05/16 03:46:03;;;;;;;2.28;1.48;;;19.60;52.70;;;;;;5071094;28;20063;-74
2022/05/16 03:48:30;;;;;;;2.22;1.60;;;19.70;56.30;;;;;;5070894;28;20433;-73
2022/05/16 03:50:57;;;;;;;2.05;1.50;;;19.60;52.70;;;;;;5070943;28;20084;-73
2022/05/16 03:53:25;;;;;;;1.27;1.10;;;18.50;56.60;;;;;;5085219;28;20382;-74
2022/05/16 03:55:51;;;;;;;3.28;1.50;;;19.70;56.90;;;;;;5092309;28;20080;-74
2022/05/16 03:58:18;;;;;;;2.30;1.40;;;19.80;57.50;;;;;;5090850;28;20736;-73
2022/05/16 04:00:45;;;;;;;2.88;1.63;;;19.60;52.70;;;;;;5091107;28;20056;-74
2022/05/16 04:03:11;;;;;;;1.55;1.27;;;19.60;57.10;;;;;;5091261;28;20092;-74
2022/05/16 04:05:38;;;;;;;2.00;1.35;;;20.00;57.10;;;;;;5088560;28;20058;-74
2022/05/16 04:08:06;;;;;;;1.95;1.52;;;19.90;58.10;;;;;;5070897;28;20126;-74
2022/05/16 04:10:34;;;;;;;1.85;1.27;;;19.60;52.70;;;;;;5070504;28;20055;-74
2022/05/16 04:13:01;;;;;;;1.88;1.40;;;19.60;52.70;;;;;;5070694;28;20060;-74
2022/05/16 04:15:28;;;;;;;1.92;1.35;;;20.40;57.40;;;;;;5070746;28;20139;-73
2022/05/16 04:17:54;;;;;;;2.90;1.45;;;19.60;56.50;;;;;;5070725;28;20135;-74
2022/05/16 04:20:21;;;;;;;1.35;1.15;;;19.60;52.70;;;;;;5080945;28;20048;-74
2022/05/16 04:22:48;;;;;;;2.08;1.48;;;20.00;57.20;;;;;;5090956;28;20135;-74
2022/05/16 04:25:17;;;;;;;1.67;1.27;;;19.60;52.70;;;;;;5090709;28;20056;-74
2022/05/16 04:27:45;;;;;;;2.78;1.30;;;19.50;56.50;;;;;;5090816;28;20055;-75
2022/05/16 04:30:12;;;;;;;2.67;1.75;;;19.70;57.60;;;;;;5090611;28;20059;-74
2022/05/16 04:32:39;;;;;;;1.27;1.17;;;19.60;52.70;;;;;;5124489;28;20139;-74
2022/05/16 04:35:06;;;;;;;1.88;1.40;;;19.60;52.70;;;;;;5071034;28;20052;-74
2022/05/16 04:37:33;;;;;;;1.70;1.50;;;19.60;52.70;;;;;;5070139;28;20056;-74
2022/05/16 04:40:00;;;;;;;3.15;1.30;;;19.60;56.70;;;;;;5069976;28;20056;-74
2022/05/16 04:42:41;;;;;;;1.63;1.20;;;19.50;58.00;;;;;;5070302;28;20405;-74
2022/05/16 04:45:10;;;;;;;1.27;1.17;;;19.60;52.50;;;;;;5070661;28;20239;-74
2022/05/16 04:47:37;;;;;;;2.15;1.20;;;19.70;56.90;;;;;;5083119;28;20075;-74
2022/05/16 04:50:05;;;;;;;1.63;1.30;;;19.60;52.50;;;;;;5094597;28;20564;-74
2022/05/16 04:52:32;;;;;;;2.10;1.25;;;19.00;58.00;;;;;;5128758;27;20113;-74
2022/05/16 04:54:59;;;;;;;1.92;1.35;;;20.30;57.10;;;;;;5094816;28;20071;-74
2022/05/16 04:57:26;;;;;;;3.58;1.20;;;19.60;52.40;;;;;;5094496;28;20138;-74
2022/05/16 04:59:52;;;;;;;1.23;1.10;;;19.60;52.40;;;;;;5093902;28;20062;-74
2022/05/16 05:02:20;;;;;;;1.75;1.38;;;19.50;56.70;;;;;;5076311;28;20055;-74
2022/05/16 05:04:48;;;;;;;1.70;1.20;;;19.60;56.30;;;;;;5072866;28;20144;-75
2022/05/16 05:07:15;;;;;;;2.10;1.20;;;19.60;52.40;;;;;;5073488;28;20052;-74
2022/05/16 05:15:11;;;;;;;1.42;1.20;;;19.60;52.40;;;;;;5104163;28;20051;-74
2022/05/16 05:17:40;;;;;;;2.03;1.30;;;20.30;58.10;;;;;;5099636;28;20044;-74
2022/05/16 05:20:13;;;;;;;1.90;1.20;;;19.60;52.40;;;;;;5104955;28;20081;-74
2022/05/16 05:22:40;;;;;;;2.33;1.48;;;19.60;52.40;;;;;;5105195;28;20094;-73
2022/05/16 05:25:07;;;;;;;2.25;1.30;;;19.60;52.40;;;;;;5100165;28;20140;-73
2022/05/16 05:27:33;;;;;;;1.70;1.30;;;19.60;52.40;;;;;;5095890;28;20131;-73
2022/05/16 05:30:00;;;;;;;3.00;1.65;;;19.50;57.40;;;;;;5093964;28;20052;-73
2022/05/16 05:32:27;;;;;;;1.90;1.35;;;19.70;56.30;;;;;;5091646;28;20415;-73
2022/05/16 05:34:55;;;;;;;2.85;1.33;;;20.00;56.50;;;;;;5074863;28;20055;-73
2022/05/16 05:37:21;;;;;;;3.13;1.40;;;19.60;52.40;;;;;;5073258;28;20412;-73
2022/05/16 05:39:48;;;;;;;2.63;1.40;;;19.60;57.30;;;;;;5073213;28;20056;-73
2022/05/16 05:42:15;;;;;;;2.28;1.25;;;19.50;52.40;;;;;;5074213;28;20152;-73
2022/05/16 05:44:42;;;;;;;2.13;1.40;;;19.70;56.70;;;;;;5073723;28;20052;-73
2022/05/16 05:47:09;;;;;;;1.80;1.27;;;19.40;56.10;;;;;;5073465;28;20061;-73
2022/05/16 05:49:36;;;;;;;2.20;1.50;;;19.60;52.40;;;;;;5081539;28;20044;-74
2022/05/16 05:52:05;;;;;;;1.60;1.20;;;18.80;55.60;;;;;;5094724;28;20689;-74
2022/05/16 05:54:31;;;;;;;2.28;1.30;;;19.60;52.30;;;;;;5127419;27;20051;-73
2022/05/16 05:56:58;;;;;;;3.63;1.40;;;18.90;56.10;;;;;;5093459;28;20052;-74
2022/05/16 05:59:25;;;;;;;1.55;1.27;;;19.70;57.90;;;;;;5092721;28;20477;-73
2022/05/16 06:01:51;;;;;;;2.08;1.40;;;19.70;52.10;;;;;;5093464;28;20082;-72
2022/05/16 06:04:18;;;;;;;2.08;1.30;;;19.70;52.00;;;;;;5093456;28;20056;-72
2022/05/16 06:06:46;;;;;;;1.63;1.20;;;19.80;55.90;;;;;;5091330;28;20060;-71
2022/05/16 06:09:15;;;;;;;3.28;1.67;;;19.00;56.80;;;;;;5074117;28;20070;-74
2022/05/16 06:11:41;;;;;;;5.32;1.55;;;20.00;55.70;;;;;;5073057;28;20057;-74
2022/05/16 06:14:08;;;;;;;1.63;1.30;;;19.70;56.20;;;;;;5072948;28;20059;-74
2022/05/16 06:16:35;;;;;;;2.38;1.42;;;19.90;52.00;;;;;;5073246;28;20408;-74
2022/05/16 06:19:01;;;;;;;6.47;1.73;;;19.80;57.20;;;;;;5073036;28;20059;-75
2022/05/16 06:21:29;;;;;;;4.95;2.00;;;20.20;56.50;;;;;;5073269;28;20063;-72
2022/05/16 06:23:56;;;;;;;7.38;2.00;;;20.50;56.50;;;;;;5072980;28;20056;-73
2022/05/16 06:26:24;;;;;;;4.93;1.90;;;20.00;51.90;;;;;;5073036;28;20569;-73
2022/05/16 06:28:51;;;;;;;1.92;1.40;;;20.00;51.80;;;;;;5090029;28;20139;-74
2022/05/16 06:31:17;;;;;;;4.35;1.60;;;19.00;56.40;;;;;;5093104;28;20139;-74
2022/05/16 06:33:46;;;;;;;7.63;1.70;;;20.00;51.80;;;;;;5093920;28;20164;-73
2022/05/16 06:36:13;;;;;;;7.47;1.90;;;19.20;55.80;;;;;;5092776;28;20060;-74
2022/05/16 06:38:40;;;;;;;5.07;1.63;;;20.10;57.20;;;;;;5094793;28;20497;-74
2022/05/16 06:41:07;;;;;;;3.97;1.63;;;20.00;51.60;;;;;;5093712;28;20056;-73
2022/05/16 06:43:35;;;;;;;2.38;1.63;;;20.00;55.90;;;;;;5093262;28;20044;-72
2022/05/16 06:46:02;;;;;;;10.00;1.70;;;19.90;56.90;;;;;;5097283;28;20054;-73
2022/05/16 06:48:30;;;;;;;2.15;1.33;;;19.50;54.70;;;;;;5104410;28;20040;-73
2022/05/16 06:50:56;;;;;;;3.55;1.30;;;20.00;51.50;;;;;;5095909;28;20480;-73
2022/05/16 06:53:26;;;;;;;2.35;1.33;;;20.10;51.50;;;;;;5128604;27;20067;-73
2022/05/16 06:55:53;;;;;;;5.90;1.60;;;20.10;51.50;;;;;;5103977;28;20060;-73
2022/05/16 06:58:20;;;;;;;2.20;1.50;;;20.10;51.50;;;;;;5104942;28;20476;-73
2022/05/16 07:00:48;;;;;;;9.45;1.50;;;19.70;56.20;;;;;;5102780;28;20131;-74
2022/05/16 07:03:15;;;;;;;3.95;1.80;;;20.10;54.90;;;;;;5102694;28;20052;-73
2022/05/16 07:05:42;;;;;;;2.00;1.30;;;20.60;54.90;;;;;;5104442;28;20051;-74
2022/05/16 07:08:09;;;;;;;4.88;2.05;;;20.30;55.00;;;;;;5101375;28;20050;-74
2022/05/16 07:10:36;;;;;;;3.03;1.30;;;20.90;55.20;;;;;;5103021;28;20078;-74
2022/05/16 07:13:03;;;;;;;2.65;1.33;;;21.20;56.40;;;;;;5091548;28;20423;-75
2022/05/16 07:15:30;;;;;;;2.25;1.40;;;20.80;50.80;;;;;;5092810;28;20075;-74
2022/05/16 07:17:59;;;;;;;3.42;1.52;;;21.00;54.60;;;;;;5092697;28;20519;-75
2022/05/16 07:20:26;;;;;;;2.40;1.38;;;21.60;54.60;;;;;;5079461;28;20059;-76
2022/05/16 07:22:53;;;;;;;4.20;1.60;;;20.40;55.10;;;;;;5126931;27;20052;-76
2022/05/16 07:25:22;;;;;;;4.20;1.48;;;21.20;50.30;;;;;;5116471;27;20134;-75
2022/05/16 07:27:56;;;;;;;4.40;1.70;;;22.10;54.30;;;;;;5073504;28;20044;-76
2022/05/16 07:30:24;;;;;;;5.65;1.55;;;21.60;55.90;;;;;;5071974;28;20049;-75
2022/05/16 07:32:51;;;;;;;3.72;1.70;;;21.50;55.00;;;;;;5072019;28;20058;-75
2022/05/16 07:35:22;;;;;;;10.52;1.63;;;21.60;50.00;;;;;;5071861;28;20128;-74
2022/05/16 07:37:49;;;;;;;4.03;1.52;;;21.50;53.70;;;;;;5078586;28;20040;-74
2022/05/16 07:40:16;;;;;;;3.67;1.70;;;21.90;55.70;;;;;;5090917;28;20138;-74
2022/05/16 07:42:43;;;;;;;2.72;1.50;;;21.80;49.80;;;;;;5090518;28;20052;-73
2022/05/16 07:45:10;;;;;;;4.80;1.77;;;21.90;54.70;;;;;;5091407;28;20419;-74
2022/05/16 07:47:37;;;;;;;5.63;2.13;;;21.90;49.50;;;;;;5125639;27;20572;-74
2022/05/16 07:50:05;;;;;;;6.25;2.67;;;22.10;55.10;;;;;;5091303;28;20091;-74
2022/05/16 07:52:33;;;;;;;6.10;1.75;;;22.10;53.90;;;;;;5125250;27;20050;-74
2022/05/16 07:55:00;;;;;;;7.13;1.73;;;22.10;53.70;;;;;;5089808;28;20048;-74
2022/05/16 07:57:26;;;;;;;5.35;1.40;;;22.20;54.20;;;;;;5123938;27;20044;-75
2022/05/16 07:59:53;;;;;;;3.95;1.70;;;22.50;55.00;;;;;;5086602;28;20052;-74
2022/05/16 08:02:20;;;;;;;7.50;2.53;;;22.40;53.20;;;;;;5090808;28;20051;-74
2022/05/16 08:04:46;;;;;;;3.28;1.90;;;22.10;52.30;;;;;;5091011;28;20134;-74
2022/05/16 08:07:13;;;;;;;6.35;1.80;;;22.30;49.40;;;;;;5091287;28;20056;-74
2022/05/16 08:12:26;;;;;;;3.38;1.70;;;22.40;48.90;;;;;;5125320;27;20412;-74
2022/05/16 08:14:53;;;;;;;6.70;2.25;;;22.50;48.90;;;;;;5079549;28;20060;-74
2022/05/16 08:17:19;;;;;;;5.82;1.60;;;22.50;48.80;;;;;;5070590;28;20048;-75
2022/05/16 08:19:46;;;;;;;5.45;2.00;;;22.80;53.50;;;;;;5105674;28;20158;-76
2022/05/16 08:22:13;;;;;;;5.13;1.70;;;22.60;48.80;;;;;;5071463;28;20135;-76
2022/05/16 08:24:41;;;;;;;4.05;1.38;;;22.60;48.70;;;;;;5072176;28;20143;-75
2022/05/16 08:27:08;;;;;;;2.95;1.50;;;22.40;52.80;;;;;;5074440;28;20123;-76
2022/05/16 08:29:34;;;;;;;4.53;1.40;;;22.50;53.10;;;;;;5091009;28;20134;-76
2022/05/16 08:32:01;;;;;;;4.97;2.00;;;22.60;48.70;;;;;;5071961;28;20502;-76
2022/05/16 08:34:28;;;;;;;12.98;2.53;;;22.60;48.80;;;;;;5071670;28;20062;-74
2022/05/16 08:42:31;;;;;;;17.10;3.78;;;22.70;53.00;;;;;;5077365;28;20512;-76
2022/05/16 08:45:00;;;;;;;22.30;4.00;;;22.60;49.00;;;;;;5090394;28;20063;-73
2022/05/16 08:47:38;;;;;;;14.15;2.80;;;22.50;52.90;;;;;;5089278;28;20055;-73
2022/05/16 08:50:08;;;;;;;14.35;3.40;;;22.70;53.10;;;;;;5097189;28;20063;-73
2022/05/16 08:52:36;;;;;;;15.25;3.53;;;22.60;49.00;;;;;;5099514;28;20052;-73
2022/05/16 08:55:06;;;;;;;13.10;3.20;;;21.40;53.10;;;;;;5096036;28;20117;-75
2022/05/16 08:57:36;;;;;;;11.88;3.22;;;22.60;49.00;;;;;;5095760;28;20038;-74
2022/05/16 09:00:05;;;;;;;7.57;2.85;;;22.60;49.00;;;;;;5084434;28;20117;-74
2022/05/16 09:02:32;;;;;;;13.32;3.17;;;22.60;49.00;;;;;;5090403;28;20138;-71
2022/05/16 09:05:05;;;;;;;11.75;3.45;;;22.60;49.00;;;;;;5090974;28;20043;-74
2022/05/16 09:07:35;;;;;;;7.53;2.97;;;22.60;53.70;;;;;;5090375;28;20063;-74
2022/05/16 09:10:10;;;;;;;8.68;2.90;;;22.60;49.10;;;;;;5098948;28;20064;-74
2022/05/16 09:12:40;;;;;;;7.75;2.60;;;22.60;54.30;;;;;;5097980;28;20071;-74
2022/05/16 09:15:12;;;;;;;8.45;2.35;;;22.70;49.80;;;;;;5100270;28;20058;-74
2022/05/16 09:17:49;;;;;;;10.07;2.88;;;22.40;54.10;;;;;;5090728;28;20048;-76
2022/05/16 09:20:26;;;;;;;7.82;2.60;;;21.50;52.60;;;;;;5089951;28;20143;-76
2022/05/16 09:23:00;;;;;;;7.00;2.63;;;22.60;49.10;;;;;;5092455;28;20472;-75
2022/05/16 09:25:32;;;;;;;11.73;2.55;;;22.60;49.10;;;;;;5092638;28;20143;-74
2022/05/16 09:30:44;;;;;;;7.32;2.50;;;22.60;49.10;;;;;;5125868;28;20134;-75
2022/05/16 09:33:12;;;;;;;7.95;2.38;;;22.60;49.10;;;;;;5093196;28;20139;-76
2022/05/16 09:35:46;;;;;;;6.43;2.13;;;22.60;49.10;;;;;;5095871;28;20120;-75
2022/05/16 09:38:13;;;;;;;6.68;2.30;;;22.60;49.20;;;;;;5095468;28;20123;-75
2022/05/16 09:40:46;;;;;;;3.65;2.00;;;22.60;49.10;;;;;;5094626;28;20054;-75
2022/05/16 09:43:16;;;;;;;7.20;2.17;;;22.60;49.10;;;;;;5093833;28;20060;-74
2022/05/16 09:45:43;;;;;;;6.70;2.40;;;22.50;53.60;;;;;;5093644;28;20131;-74
2022/05/16 09:48:16;;;;;;;4.35;2.00;;;22.60;49.20;;;;;;5093581;28;20643;-74
2022/05/16 09:50:42;;;;;;;5.88;2.08;;;22.60;52.60;;;;;;5093372;28;20059;-74
2022/05/16 09:53:13;;;;;;;4.55;1.90;;;22.60;54.20;;;;;;5115201;27;20056;-74
2022/05/16 09:55:46;;;;;;;3.67;1.75;;;22.60;49.10;;;;;;5076207;28;20056;-74
2022/05/16 09:58:14;;;;;;;6.18;2.17;;;22.60;49.10;;;;;;5093002;28;20040;-74
2022/05/16 10:00:46;;;;;;;4.70;2.10;;;22.60;54.90;;;;;;5089757;28;20048;-74
2022/05/16 10:03:23;;;;;;;3.17;1.90;;;22.60;54.30;;;;;;5093681;28;20135;-75
2022/05/16 10:05:51;;;;;;;3.55;1.90;;;23.20;49.50;;;;;;5093465;28;20105;-75
2022/05/16 10:08:25;;;;;;;4.45;2.00;;;22.60;49.20;;;;;;5089578;28;20145;-75
2022/05/16 10:10:53;;;;;;;3.97;2.00;;;22.60;49.20;;;;;;5087537;28;20067;-74
2022/05/16 10:13:19;;;;;;;5.32;1.85;;;22.60;49.20;;;;;;5093342;28;20126;-74
2022/05/16 10:15:47;;;;;;;5.07;2.05;;;22.60;49.20;;;;;;5093034;28;20062;-74
2022/05/16 10:18:17;;;;;;;6.18;2.20;;;22.60;49.20;;;;;;5093033;28;20404;-74
2022/05/16 10:20:46;;;;;;;4.82;2.28;;;22.60;49.20;;;;;;5126704;27;20565;-73
2022/05/16 10:23:15;;;;;;;4.05;2.05;;;22.60;49.20;;;;;;5093279;28;20078;-72
2022/05/16 10:25:46;;;;;;;4.75;1.90;;;22.70;53.40;;;;;;5092395;28;20052;-73
2022/05/16 10:28:17;;;;;;;3.67;1.70;;;22.60;49.20;;;;;;5118772;27;20048;-73
2022/05/16 10:33:30;;;;;;;3.08;1.90;;;22.80;52.00;;;;;;5126697;27;20055;-73
2022/05/16 10:35:59;;;;;;;4.00;1.92;;;22.60;49.40;;;;;;5092589;28;20082;-73
2022/05/16 10:38:34;;;;;;;5.40;2.00;;;22.60;49.30;;;;;;5090698;28;20048;-73
2022/05/16 10:41:01;;;;;;;5.70;1.90;;;22.40;53.50;;;;;;5091475;28;20134;-73
2022/05/16 10:43:36;;;;;;;4.43;1.83;;;22.60;54.30;;;;;;5092251;28;20052;-73
2022/05/16 10:46:06;;;;;;;2.28;1.48;;;22.50;53.40;;;;;;5126374;27;20497;-74
2022/05/16 10:48:39;;;;;;;4.70;1.65;;;22.80;54.20;;;;;;5091519;28;20375;-74
2022/05/16 10:51:09;;;;;;;2.55;1.60;;;22.50;49.40;;;;;;5092080;28;20164;-74
2022/05/16 10:53:38;;;;;;;2.67;1.67;;;22.40;53.70;;;;;;5092380;28;20062;-74
2022/05/16 10:56:10;;;;;;;3.80;1.80;;;22.50;49.50;;;;;;5090548;28;20067;-74
2022/05/16 10:58:45;;;;;;;7.40;2.00;;;22.50;49.50;;;;;;5092046;28;20047;-74
2022/05/16 11:01:13;;;;;;;3.80;1.70;;;22.50;49.60;;;;;;5092369;28;20058;-74
2022/05/16 11:03:45;;;;;;;3.55;1.60;;;22.60;54.60;;;;;;5092190;28;20461;-74
2022/05/16 11:06:54;;;;;;;5.90;1.70;;;22.40;49.60;;;;;;5091726;28;20048;-73
2022/05/16 11:09:26;;;;;;;2.55;1.52;;;22.40;54.80;;;;;;5056297;28;20058;-73
2022/05/16 11:11:55;;;;;;;4.10;1.88;;;22.40;49.70;;;;;;5090546;28;20052;-74
2022/05/16 11:14:27;;;;;;;3.40;1.95;;;22.40;49.70;;;;;;5091734;28;20048;-73
2022/05/16 11:16:54;;;;;;;3.50;1.80;;;22.40;49.70;;;;;;5092134;28;20066;-73
2022/05/16 11:19:24;;;;;;;3.42;1.60;;;22.40;49.70;;;;;;5091657;28;20052;-74
2022/05/16 11:21:54;;;;;;;2.53;1.60;;;22.50;54.40;;;;;;5091675;28;20072;-74
2022/05/16 11:24:28;;;;;;;3.38;1.67;;;22.40;49.80;;;;;;5091898;28;20472;-74
2022/05/16 11:26:59;;;;;;;4.35;1.70;;;22.50;49.80;;;;;;5091873;28;20066;-73
2022/05/16 11:29:32;;;;;;;3.03;1.55;;;22.40;49.80;;;;;;5087483;28;20048;-73
2022/05/16 11:32:07;;;;;;;2.58;1.55;;;22.40;49.80;;;;;;5078757;28;20048;-74
2022/05/16 11:34:50;;;;;;;5.57;1.65;;;22.40;49.80;;;;;;5071292;28;20063;-74
2022/05/16 11:37:22;;;;;;;2.47;1.40;;;22.40;49.80;;;;;;5071379;28;20055;-73
2022/05/16 11:39:52;;;;;;;3.10;1.60;;;22.40;49.90;;;;;;5070561;28;20045;-74
2022/05/16 11:42:21;;;;;;;5.45;1.77;;;22.30;49.70;;;;;;5071287;28;20095;-73
2022/05/16 11:44:58;;;;;;;3.15;1.63;;;22.50;49.90;;;;;;5083880;28;20062;-74
2022/05/16 11:47:26;;;;;;;3.00;1.70;;;22.50;49.80;;;;;;5091322;28;20109;-74
2022/05/16 11:49:56;;;;;;;2.78;1.70;;;22.40;54.70;;;;;;5090262;28;20481;-74
2022/05/16 11:52:29;;;;;;;2.42;1.50;;;22.50;49.80;;;;;;5090715;28;20052;-74
2022/05/16 11:54:58;;;;;;;3.40;1.48;;;23.00;54.20;;;;;;5091435;28;20055;-74
2022/05/16 12:00:34;;;;;;;2.67;1.60;;;22.60;49.70;;;;;;5117434;27;20080;-74
2022/05/16 12:03:16;;;;;;;2.65;1.40;;;22.60;49.70;;;;;;5104679;28;20132;-75
2022/05/16 12:05:44;;;;;;;2.33;1.70;;;22.60;49.70;;;;;;5105057;28;20063;-74
2022/05/16 12:08:41;;;;;;;2.33;1.40;;;22.70;54.60;;;;;;5070680;28;20052;-74
2022/05/16 12:11:17;;;;;;;2.83;1.50;;;22.60;49.70;;;;;;5058487;28;20052;-74
2022/05/16 12:14:09;;;;;;;5.18;1.80;;;22.60;49.70;;;;;;5076958;28;20045;-74
2022/05/16 12:16:50;;;;;;;2.88;1.77;;;22.60;49.70;;;;;;5070434;28;20056;-74
2022/05/16 12:19:25;;;;;;;4.53;2.00;;;21.30;53.80;;;;;;5076592;28;20056;-75
2022/05/16 12:21:57;;;;;;;4.85;1.70;;;22.60;49.60;;;;;;5077938;28;20060;-74
2022/05/16 12:24:30;;;;;;;3.03;1.50;;;22.60;49.60;;;;;;5090961;28;20415;-75
2022/05/16 12:27:25;;;;;;;3.78;1.60;;;22.80;54.00;;;;;;5080622;28;20095;-75
2022/05/16 12:29:56;;;;;;;2.47;1.50;;;22.80;54.70;;;;;;5104328;28;20052;-75
2022/05/16 12:33:00;;;;;;;2.60;1.60;;;22.60;54.50;;;;;;5104181;28;20080;-75
2022/05/16 12:35:42;;;;;;;3.67;1.90;;;23.50;55.90;;;;;;5104488;28;20497;-75
2022/05/16 12:38:11;;;;;;;2.60;1.70;;;21.30;54.70;;;;;;5106505;28;20051;-75
2022/05/16 12:40:51;;;;;;;6.13;2.08;;;22.60;49.90;;;;;;5112694;28;20193;-75
2022/05/16 12:43:28;;;;;;;4.15;2.00;;;22.60;49.80;;;;;;5079213;28;20056;-74
2022/05/16 12:46:23;;;;;;;4.13;1.77;;;22.80;53.70;;;;;;5095297;28;20051;-74
2022/05/16 12:49:06;;;;;;;3.27;1.87;;;22.60;49.90;;;;;;5090839;28;20765;-74
2022/05/16 12:51:45;;;;;;;3.55;1.70;;;22.70;49.90;;;;;;5120069;28;20491;-74
2022/05/16 12:54:44;;;;;;;2.85;1.60;;;22.70;55.30;;;;;;5096560;28;20059;-73
2022/05/16 12:57:48;;;;;;;4.35;1.77;;;22.70;50.00;;;;;;5097589;28;20066;-74
2022/05/16 13:00:18;;;;;;;2.90;1.60;;;22.70;50.00;;;;;;5084500;28;20051;-74
2022/05/16 13:02:48;;;;;;;3.65;1.60;;;22.60;50.00;;;;;;5116608;28;20062;-73
2022/05/16 13:05:24;;;;;;;4.13;1.70;;;22.60;50.10;;;;;;5087966;28;20404;-74
2022/05/16 13:07:58;;;;;;;7.60;1.77;;;23.10;53.10;;;;;;5091217;28;20062;-73
2022/05/16 13:10:31;;;;;;;6.22;1.63;;;22.60;50.30;;;;;;5080121;28;20143;-73
2022/05/16 13:13:03;;;;;;;5.85;1.88;;;22.40;54.00;;;;;;5085377;28;20052;-74
2022/05/16 13:15:32;;;;;;;3.47;1.98;;;22.60;50.50;;;;;;5084269;28;20060;-73
2022/05/16 13:17:59;;;;;;;4.90;1.90;;;22.80;53.60;;;;;;5079390;28;20144;-74
2022/05/16 13:20:31;;;;;;;4.28;1.67;;;22.60;50.60;;;;;;5081673;28;20421;-74
2022/05/16 13:22:59;;;;;;;5.53;1.70;;;22.60;50.70;;;;;;5094516;28;20052;-74
2022/05/16 13:25:26;;;;;;;3.60;1.63;;;22.60;50.70;;;;;;5085083;28;20127;-73
2022/05/16 13:30:37;;;;;;;8.50;2.20;;;22.50;56.60;;;;;;5116844;27;20047;-73
2022/05/16 13:33:04;;;;;;;8.35;2.80;;;22.60;50.90;;;;;;5074154;28;20406;-74